<?xml version="1.0" encoding="UTF-8"?>
<gpx xmlns="http://www.topografix.com/GPX/1/1" xmlns:xsi="http://www.w3.org/2001/XMLSchema-instance" version="1.1" xsi:schemaLocation="http://www.topografix.com/GPX/1/1 http://www.topografix.com/GPX/1/1/gpx.xsd">
  <metadata>
    <name>CLASH Miami</name>
  </metadata>
  <trk>
    <name>CLASH Miami</name>
    <trkseg>
      <trkpt lat="25.452179" lon="-80.411556">
        <ele>1.000006</ele>
        <time>2024-03-10T08:32:00.000Z</time>
      </trkpt>
      <trkpt lat="25.452187" lon="-80.41157">
        <ele>1.000006</ele>
        <time>2024-03-10T08:32:00.000Z</time>
      </trkpt>
      <trkpt lat="25.452282" lon="-80.411669">
        <ele>1.000006</ele>
        <time>2024-03-10T08:32:01.000Z</time>
      </trkpt>
      <trkpt lat="25.452365" lon="-80.41188">
        <ele>1.000006</ele>
        <time>2024-03-10T08:32:03.000Z</time>
      </trkpt>
      <trkpt lat="25.452365" lon="-80.411894">
        <ele>1.000006</ele>
        <time>2024-03-10T08:32:03.000Z</time>
      </trkpt>
      <trkpt lat="25.452157" lon="-80.412389">
        <ele>1.000006</ele>
        <time>2024-03-10T08:32:08.000Z</time>
      </trkpt>
      <trkpt lat="25.452243" lon="-80.412522">
        <ele>1.000006</ele>
        <time>2024-03-10T08:32:10.000Z</time>
      </trkpt>
      <trkpt lat="25.452552" lon="-80.412009">
        <ele>1.000006</ele>
        <time>2024-03-10T08:32:16.000Z</time>
      </trkpt>
      <trkpt lat="25.452854" lon="-80.411486">
        <ele>1.000006</ele>
        <time>2024-03-10T08:32:22.000Z</time>
      </trkpt>
      <trkpt lat="25.453208" lon="-80.410746">
        <ele>1.000006</ele>
        <time>2024-03-10T08:32:30.000Z</time>
      </trkpt>
      <trkpt lat="25.453537" lon="-80.409991">
        <ele>1.000006</ele>
        <time>2024-03-10T08:32:38.000Z</time>
      </trkpt>
      <trkpt lat="25.45388" lon="-80.40924">
        <ele>1.000006</ele>
        <time>2024-03-10T08:32:46.000Z</time>
      </trkpt>
      <trkpt lat="25.454223" lon="-80.40851">
        <ele>1.000006</ele>
        <time>2024-03-10T08:32:54.000Z</time>
      </trkpt>
      <trkpt lat="25.454561" lon="-80.407748">
        <ele>1.000006</ele>
        <time>2024-03-10T08:33:03.000Z</time>
      </trkpt>
      <trkpt lat="25.45476" lon="-80.407038">
        <ele>1.000006</ele>
        <time>2024-03-10T08:33:10.000Z</time>
      </trkpt>
      <trkpt lat="25.454806" lon="-80.406274">
        <ele>1.000006</ele>
        <time>2024-03-10T08:33:18.000Z</time>
      </trkpt>
      <trkpt lat="25.454686" lon="-80.405538">
        <ele>1.000006</ele>
        <time>2024-03-10T08:33:26.000Z</time>
      </trkpt>
      <trkpt lat="25.454371" lon="-80.405001">
        <ele>1.000006</ele>
        <time>2024-03-10T08:33:32.000Z</time>
      </trkpt>
      <trkpt lat="25.453936" lon="-80.404626">
        <ele>1.000006</ele>
        <time>2024-03-10T08:33:38.000Z</time>
      </trkpt>
      <trkpt lat="25.453549" lon="-80.404449">
        <ele>1.000006</ele>
        <time>2024-03-10T08:33:43.000Z</time>
      </trkpt>
      <trkpt lat="25.45316" lon="-80.40441">
        <ele>1.000006</ele>
        <time>2024-03-10T08:33:47.000Z</time>
      </trkpt>
      <trkpt lat="25.45255" lon="-80.404527">
        <ele>1.000006</ele>
        <time>2024-03-10T08:33:54.000Z</time>
      </trkpt>
      <trkpt lat="25.452023" lon="-80.404856">
        <ele>1.000006</ele>
        <time>2024-03-10T08:34:01.000Z</time>
      </trkpt>
      <trkpt lat="25.451705" lon="-80.405274">
        <ele>1.000006</ele>
        <time>2024-03-10T08:34:06.000Z</time>
      </trkpt>
      <trkpt lat="25.451383" lon="-80.405702">
        <ele>1.000006</ele>
        <time>2024-03-10T08:34:12.000Z</time>
      </trkpt>
      <trkpt lat="25.451019" lon="-80.40641">
        <ele>1.000006</ele>
        <time>2024-03-10T08:34:20.000Z</time>
      </trkpt>
      <trkpt lat="25.450624" lon="-80.407282">
        <ele>1.000006</ele>
        <time>2024-03-10T08:34:30.000Z</time>
      </trkpt>
      <trkpt lat="25.45023" lon="-80.40816">
        <ele>1.000006</ele>
        <time>2024-03-10T08:34:40.000Z</time>
      </trkpt>
      <trkpt lat="25.449838" lon="-80.409024">
        <ele>1.000006</ele>
        <time>2024-03-10T08:34:50.000Z</time>
      </trkpt>
      <trkpt lat="25.449446" lon="-80.409899">
        <ele>1.000006</ele>
        <time>2024-03-10T08:35:00.000Z</time>
      </trkpt>
      <trkpt lat="25.449432" lon="-80.410636">
        <ele>1.000006</ele>
        <time>2024-03-10T08:35:07.000Z</time>
      </trkpt>
      <trkpt lat="25.449417" lon="-80.411369">
        <ele>1.000006</ele>
        <time>2024-03-10T08:35:14.000Z</time>
      </trkpt>
      <trkpt lat="25.4495" lon="-80.411462">
        <ele>1.000006</ele>
        <time>2024-03-10T08:35:15.000Z</time>
      </trkpt>
      <trkpt lat="25.449642" lon="-80.411522">
        <ele>1.000006</ele>
        <time>2024-03-10T08:35:17.000Z</time>
      </trkpt>
      <trkpt lat="25.44974" lon="-80.411483">
        <ele>1.000006</ele>
        <time>2024-03-10T08:35:18.000Z</time>
      </trkpt>
      <trkpt lat="25.449785" lon="-80.411383">
        <ele>1.000006</ele>
        <time>2024-03-10T08:35:19.000Z</time>
      </trkpt>
      <trkpt lat="25.45008" lon="-80.410589">
        <ele>1.000006</ele>
        <time>2024-03-10T08:35:28.000Z</time>
      </trkpt>
      <trkpt lat="25.450359" lon="-80.409798">
        <ele>1.000006</ele>
        <time>2024-03-10T08:35:37.000Z</time>
      </trkpt>
      <trkpt lat="25.450636" lon="-80.408989">
        <ele>1.000006</ele>
        <time>2024-03-10T08:35:46.000Z</time>
      </trkpt>
      <trkpt lat="25.450926" lon="-80.408204">
        <ele>1.000006</ele>
        <time>2024-03-10T08:35:55.000Z</time>
      </trkpt>
      <trkpt lat="25.451209" lon="-80.407397">
        <ele>1.000006</ele>
        <time>2024-03-10T08:36:04.000Z</time>
      </trkpt>
      <trkpt lat="25.451504" lon="-80.406602">
        <ele>1.000006</ele>
        <time>2024-03-10T08:36:13.000Z</time>
      </trkpt>
      <trkpt lat="25.451661" lon="-80.406342">
        <ele>1.000006</ele>
        <time>2024-03-10T08:36:16.000Z</time>
      </trkpt>
      <trkpt lat="25.451876" lon="-80.406162">
        <ele>1.000006</ele>
        <time>2024-03-10T08:36:19.000Z</time>
      </trkpt>
      <trkpt lat="25.452136" lon="-80.406056">
        <ele>1.000006</ele>
        <time>2024-03-10T08:36:22.000Z</time>
      </trkpt>
      <trkpt lat="25.452517" lon="-80.405993">
        <ele>1.000006</ele>
        <time>2024-03-10T08:36:26.000Z</time>
      </trkpt>
      <trkpt lat="25.452494" lon="-80.405607">
        <ele>1.000006</ele>
        <time>2024-03-10T08:36:30.000Z</time>
      </trkpt>
      <trkpt lat="25.452101" lon="-80.405698">
        <ele>1.000006</ele>
        <time>2024-03-10T08:36:34.000Z</time>
      </trkpt>
      <trkpt lat="25.451578" lon="-80.40583">
        <ele>1.000006</ele>
        <time>2024-03-10T08:36:40.000Z</time>
      </trkpt>
      <trkpt lat="25.450934" lon="-80.406009">
        <ele>1.000006</ele>
        <time>2024-03-10T08:36:47.000Z</time>
      </trkpt>
      <trkpt lat="25.450797" lon="-80.406041">
        <ele>1.000006</ele>
        <time>2024-03-10T08:36:49.000Z</time>
      </trkpt>
      <trkpt lat="25.450531" lon="-80.4061">
        <ele>1.000006</ele>
        <time>2024-03-10T08:36:52.000Z</time>
      </trkpt>
      <trkpt lat="25.450424" lon="-80.40612">
        <ele>1.000006</ele>
        <time>2024-03-10T08:36:53.000Z</time>
      </trkpt>
      <trkpt lat="25.450417" lon="-80.406129">
        <ele>1.000006</ele>
        <time>2024-03-10T08:36:53.000Z</time>
      </trkpt>
      <trkpt lat="25.450286" lon="-80.406232">
        <ele>1.000006</ele>
        <time>2024-03-10T08:36:55.000Z</time>
      </trkpt>
      <trkpt lat="25.450211" lon="-80.406408">
        <ele>1.000006</ele>
        <time>2024-03-10T08:36:57.000Z</time>
      </trkpt>
      <trkpt lat="25.44975" lon="-80.407412">
        <ele>1.000006</ele>
        <time>2024-03-10T08:37:08.000Z</time>
      </trkpt>
      <trkpt lat="25.449304" lon="-80.408398">
        <ele>1.000006</ele>
        <time>2024-03-10T08:37:19.000Z</time>
      </trkpt>
      <trkpt lat="25.448877" lon="-80.409381">
        <ele>1.000006</ele>
        <time>2024-03-10T08:37:30.000Z</time>
      </trkpt>
      <trkpt lat="25.448653" lon="-80.409455">
        <ele>1.000006</ele>
        <time>2024-03-10T08:37:33.000Z</time>
      </trkpt>
      <trkpt lat="25.448419" lon="-80.409464">
        <ele>1.000006</ele>
        <time>2024-03-10T08:37:36.000Z</time>
      </trkpt>
      <trkpt lat="25.448342" lon="-80.409465">
        <ele>1.000006</ele>
        <time>2024-03-10T08:37:37.000Z</time>
      </trkpt>
      <trkpt lat="25.448184" lon="-80.409451">
        <ele>1.000006</ele>
        <time>2024-03-10T08:37:39.000Z</time>
      </trkpt>
      <trkpt lat="25.447999" lon="-80.409467">
        <ele>1.000006</ele>
        <time>2024-03-10T08:37:41.000Z</time>
      </trkpt>
      <trkpt lat="25.447918" lon="-80.409466">
        <ele>1.000006</ele>
        <time>2024-03-10T08:37:42.000Z</time>
      </trkpt>
      <trkpt lat="25.447925" lon="-80.411876">
        <ele>1.000006</ele>
        <time>2024-03-10T08:38:06.000Z</time>
      </trkpt>
      <trkpt lat="25.447867" lon="-80.41557">
        <ele>1.000006</ele>
        <time>2024-03-10T08:38:43.000Z</time>
      </trkpt>
      <trkpt lat="25.447908" lon="-80.415686">
        <ele>1.000006</ele>
        <time>2024-03-10T08:38:44.000Z</time>
      </trkpt>
      <trkpt lat="25.448008" lon="-80.415854">
        <ele>1.000006</ele>
        <time>2024-03-10T08:38:46.000Z</time>
      </trkpt>
      <trkpt lat="25.448143" lon="-80.415657">
        <ele>1.000006</ele>
        <time>2024-03-10T08:38:48.000Z</time>
      </trkpt>
      <trkpt lat="25.448233" lon="-80.415562">
        <ele>1.000006</ele>
        <time>2024-03-10T08:38:49.000Z</time>
      </trkpt>
      <trkpt lat="25.448529" lon="-80.415414">
        <ele>1.000006</ele>
        <time>2024-03-10T08:38:53.000Z</time>
      </trkpt>
      <trkpt lat="25.448921" lon="-80.415375">
        <ele>1.000006</ele>
        <time>2024-03-10T08:38:57.000Z</time>
      </trkpt>
      <trkpt lat="25.448997" lon="-80.415375">
        <ele>1.000006</ele>
        <time>2024-03-10T08:38:58.000Z</time>
      </trkpt>
      <trkpt lat="25.449016" lon="-80.415381">
        <ele>1.000006</ele>
        <time>2024-03-10T08:38:58.000Z</time>
      </trkpt>
      <trkpt lat="25.45028" lon="-80.415395">
        <ele>1.000006</ele>
        <time>2024-03-10T08:39:12.000Z</time>
      </trkpt>
      <trkpt lat="25.450345" lon="-80.41541">
        <ele>1.000006</ele>
        <time>2024-03-10T08:39:13.000Z</time>
      </trkpt>
      <trkpt lat="25.450473" lon="-80.415409">
        <ele>1.000006</ele>
        <time>2024-03-10T08:39:14.000Z</time>
      </trkpt>
      <trkpt lat="25.450556" lon="-80.41541">
        <ele>1.000006</ele>
        <time>2024-03-10T08:39:15.000Z</time>
      </trkpt>
      <trkpt lat="25.451006" lon="-80.415382">
        <ele>1.000006</ele>
        <time>2024-03-10T08:39:20.000Z</time>
      </trkpt>
      <trkpt lat="25.451266" lon="-80.41535">
        <ele>1.000006</ele>
        <time>2024-03-10T08:39:23.000Z</time>
      </trkpt>
      <trkpt lat="25.451488" lon="-80.41527">
        <ele>1.000006</ele>
        <time>2024-03-10T08:39:26.000Z</time>
      </trkpt>
      <trkpt lat="25.451932" lon="-80.415065">
        <ele>1.000006</ele>
        <time>2024-03-10T08:39:31.000Z</time>
      </trkpt>
      <trkpt lat="25.452111" lon="-80.414924">
        <ele>1.000006</ele>
        <time>2024-03-10T08:39:33.000Z</time>
      </trkpt>
      <trkpt lat="25.452306" lon="-80.414718">
        <ele>1.000006</ele>
        <time>2024-03-10T08:39:36.000Z</time>
      </trkpt>
      <trkpt lat="25.452521" lon="-80.414468">
        <ele>1.000006</ele>
        <time>2024-03-10T08:39:39.000Z</time>
      </trkpt>
      <trkpt lat="25.452717" lon="-80.414189">
        <ele>1.000006</ele>
        <time>2024-03-10T08:39:43.000Z</time>
      </trkpt>
      <trkpt lat="25.453035" lon="-80.413733">
        <ele>1.000006</ele>
        <time>2024-03-10T08:39:49.000Z</time>
      </trkpt>
      <trkpt lat="25.453808" lon="-80.412601">
        <ele>1.000006</ele>
        <time>2024-03-10T08:40:03.000Z</time>
      </trkpt>
      <trkpt lat="25.45391" lon="-80.412467">
        <ele>1.000006</ele>
        <time>2024-03-10T08:40:05.000Z</time>
      </trkpt>
      <trkpt lat="25.454155" lon="-80.412254">
        <ele>1.000006</ele>
        <time>2024-03-10T08:40:08.000Z</time>
      </trkpt>
      <trkpt lat="25.454511" lon="-80.412015">
        <ele>1.000006</ele>
        <time>2024-03-10T08:40:13.000Z</time>
      </trkpt>
      <trkpt lat="25.454757" lon="-80.411925">
        <ele>1.000006</ele>
        <time>2024-03-10T08:40:16.000Z</time>
      </trkpt>
      <trkpt lat="25.455188" lon="-80.411819">
        <ele>1.000006</ele>
        <time>2024-03-10T08:40:21.000Z</time>
      </trkpt>
      <trkpt lat="25.455515" lon="-80.411813">
        <ele>1.000006</ele>
        <time>2024-03-10T08:40:25.000Z</time>
      </trkpt>
      <trkpt lat="25.455529" lon="-80.411995">
        <ele>1.000006</ele>
        <time>2024-03-10T08:40:27.000Z</time>
      </trkpt>
      <trkpt lat="25.455529" lon="-80.412071">
        <ele>1.000006</ele>
        <time>2024-03-10T08:40:28.000Z</time>
      </trkpt>
      <trkpt lat="25.455519" lon="-80.413494">
        <ele>1.000006</ele>
        <time>2024-03-10T08:40:42.000Z</time>
      </trkpt>
      <trkpt lat="25.455522" lon="-80.414508">
        <ele>1.000006</ele>
        <time>2024-03-10T08:40:52.000Z</time>
      </trkpt>
      <trkpt lat="25.455511" lon="-80.414512">
        <ele>1.000006</ele>
        <time>2024-03-10T08:40:52.000Z</time>
      </trkpt>
      <trkpt lat="25.455515" lon="-80.41452">
        <ele>1.000006</ele>
        <time>2024-03-10T08:40:52.000Z</time>
      </trkpt>
      <trkpt lat="25.455517" lon="-80.415713">
        <ele>1.000006</ele>
        <time>2024-03-10T08:41:04.000Z</time>
      </trkpt>
      <trkpt lat="25.455513" lon="-80.416041">
        <ele>1.000006</ele>
        <time>2024-03-10T08:41:07.000Z</time>
      </trkpt>
      <trkpt lat="25.455512" lon="-80.41618">
        <ele>1.000006</ele>
        <time>2024-03-10T08:41:08.000Z</time>
      </trkpt>
      <trkpt lat="25.455504" lon="-80.419999">
        <ele>1.000006</ele>
        <time>2024-03-10T08:41:46.000Z</time>
      </trkpt>
      <trkpt lat="25.456369" lon="-80.419993">
        <ele>1.000006</ele>
        <time>2024-03-10T08:41:56.000Z</time>
      </trkpt>
      <trkpt lat="25.457628" lon="-80.420015">
        <ele>1.000006</ele>
        <time>2024-03-10T08:42:10.000Z</time>
      </trkpt>
      <trkpt lat="25.45798" lon="-80.420008">
        <ele>1.000006</ele>
        <time>2024-03-10T08:42:14.000Z</time>
      </trkpt>
      <trkpt lat="25.462624" lon="-80.420005">
        <ele>1.000006</ele>
        <time>2024-03-10T08:43:06.000Z</time>
      </trkpt>
      <trkpt lat="25.457988" lon="-80.420001">
        <ele>1.000006</ele>
        <time>2024-03-10T08:43:58.000Z</time>
      </trkpt>
      <trkpt lat="25.45762" lon="-80.420004">
        <ele>1.000006</ele>
        <time>2024-03-10T08:44:02.000Z</time>
      </trkpt>
      <trkpt lat="25.456361" lon="-80.419997">
        <ele>1.000006</ele>
        <time>2024-03-10T08:44:16.000Z</time>
      </trkpt>
      <trkpt lat="25.45552" lon="-80.420006">
        <ele>1.000006</ele>
        <time>2024-03-10T08:44:25.000Z</time>
      </trkpt>
      <trkpt lat="25.455574" lon="-80.420279">
        <ele>1.000006</ele>
        <time>2024-03-10T08:44:28.000Z</time>
      </trkpt>
      <trkpt lat="25.455555" lon="-80.420745">
        <ele>1.000006</ele>
        <time>2024-03-10T08:44:33.000Z</time>
      </trkpt>
      <trkpt lat="25.455558" lon="-80.420748">
        <ele>1.000006</ele>
        <time>2024-03-10T08:44:33.000Z</time>
      </trkpt>
      <trkpt lat="25.455548" lon="-80.420738">
        <ele>1.000006</ele>
        <time>2024-03-10T08:44:33.000Z</time>
      </trkpt>
      <trkpt lat="25.45555" lon="-80.421731">
        <ele>1.000006</ele>
        <time>2024-03-10T08:44:43.000Z</time>
      </trkpt>
      <trkpt lat="25.455527" lon="-80.422714">
        <ele>1.000006</ele>
        <time>2024-03-10T08:44:53.000Z</time>
      </trkpt>
      <trkpt lat="25.455524" lon="-80.423683">
        <ele>1.000006</ele>
        <time>2024-03-10T08:45:03.000Z</time>
      </trkpt>
      <trkpt lat="25.4555" lon="-80.42467">
        <ele>1.000006</ele>
        <time>2024-03-10T08:45:13.000Z</time>
      </trkpt>
      <trkpt lat="25.455492" lon="-80.425654">
        <ele>1.000006</ele>
        <time>2024-03-10T08:45:23.000Z</time>
      </trkpt>
      <trkpt lat="25.455482" lon="-80.426629">
        <ele>1.000006</ele>
        <time>2024-03-10T08:45:33.000Z</time>
      </trkpt>
      <trkpt lat="25.455477" lon="-80.426636">
        <ele>1.000006</ele>
        <time>2024-03-10T08:45:33.000Z</time>
      </trkpt>
      <trkpt lat="25.455601" lon="-80.427245">
        <ele>1.000006</ele>
        <time>2024-03-10T08:45:39.000Z</time>
      </trkpt>
      <trkpt lat="25.455734" lon="-80.427861">
        <ele>1.000006</ele>
        <time>2024-03-10T08:45:45.000Z</time>
      </trkpt>
      <trkpt lat="25.455735" lon="-80.427856">
        <ele>1.000006</ele>
        <time>2024-03-10T08:45:45.000Z</time>
      </trkpt>
      <trkpt lat="25.456199" lon="-80.428665">
        <ele>1.000006</ele>
        <time>2024-03-10T08:45:55.000Z</time>
      </trkpt>
      <trkpt lat="25.456398" lon="-80.428908">
        <ele>1.000006</ele>
        <time>2024-03-10T08:45:58.000Z</time>
      </trkpt>
      <trkpt lat="25.457007" lon="-80.429459">
        <ele>1.000006</ele>
        <time>2024-03-10T08:46:07.000Z</time>
      </trkpt>
      <trkpt lat="25.458084" lon="-80.430365">
        <ele>1.000006</ele>
        <time>2024-03-10T08:46:22.000Z</time>
      </trkpt>
      <trkpt lat="25.458097" lon="-80.430367">
        <ele>1.000006</ele>
        <time>2024-03-10T08:46:22.000Z</time>
      </trkpt>
      <trkpt lat="25.458098" lon="-80.430384">
        <ele>1.000006</ele>
        <time>2024-03-10T08:46:22.000Z</time>
      </trkpt>
      <trkpt lat="25.458439" lon="-80.430943">
        <ele>1.000006</ele>
        <time>2024-03-10T08:46:29.000Z</time>
      </trkpt>
      <trkpt lat="25.458445" lon="-80.430959">
        <ele>1.000006</ele>
        <time>2024-03-10T08:46:29.000Z</time>
      </trkpt>
      <trkpt lat="25.458453" lon="-80.43098">
        <ele>1.000006</ele>
        <time>2024-03-10T08:46:29.000Z</time>
      </trkpt>
      <trkpt lat="25.458572" lon="-80.431495">
        <ele>1.000006</ele>
        <time>2024-03-10T08:46:34.000Z</time>
      </trkpt>
      <trkpt lat="25.458568" lon="-80.431554">
        <ele>1.000006</ele>
        <time>2024-03-10T08:46:35.000Z</time>
      </trkpt>
      <trkpt lat="25.458573" lon="-80.431563">
        <ele>1.000006</ele>
        <time>2024-03-10T08:46:35.000Z</time>
      </trkpt>
      <trkpt lat="25.458592" lon="-80.432155">
        <ele>1.000006</ele>
        <time>2024-03-10T08:46:41.000Z</time>
      </trkpt>
      <trkpt lat="25.458609" lon="-80.432164">
        <ele>1.000006</ele>
        <time>2024-03-10T08:46:41.000Z</time>
      </trkpt>
      <trkpt lat="25.4586" lon="-80.43218">
        <ele>1.000006</ele>
        <time>2024-03-10T08:46:41.000Z</time>
      </trkpt>
      <trkpt lat="25.458787" lon="-80.432594">
        <ele>1.000006</ele>
        <time>2024-03-10T08:46:46.000Z</time>
      </trkpt>
      <trkpt lat="25.45879" lon="-80.432586">
        <ele>1.000006</ele>
        <time>2024-03-10T08:46:46.000Z</time>
      </trkpt>
      <trkpt lat="25.459093" lon="-80.432909">
        <ele>1.000006</ele>
        <time>2024-03-10T08:46:51.000Z</time>
      </trkpt>
      <trkpt lat="25.459091" lon="-80.432918">
        <ele>1.000006</ele>
        <time>2024-03-10T08:46:51.000Z</time>
      </trkpt>
      <trkpt lat="25.459093" lon="-80.432916">
        <ele>1.000006</ele>
        <time>2024-03-10T08:46:51.000Z</time>
      </trkpt>
      <trkpt lat="25.459401" lon="-80.433172">
        <ele>1.000006</ele>
        <time>2024-03-10T08:46:55.000Z</time>
      </trkpt>
      <trkpt lat="25.459734" lon="-80.433396">
        <ele>1.000006</ele>
        <time>2024-03-10T08:46:59.000Z</time>
      </trkpt>
      <trkpt lat="25.460232" lon="-80.433634">
        <ele>1.000006</ele>
        <time>2024-03-10T08:47:05.000Z</time>
      </trkpt>
      <trkpt lat="25.46098" lon="-80.433655">
        <ele>1.000006</ele>
        <time>2024-03-10T08:47:13.000Z</time>
      </trkpt>
      <trkpt lat="25.461112" lon="-80.433636">
        <ele>1.000006</ele>
        <time>2024-03-10T08:47:14.000Z</time>
      </trkpt>
      <trkpt lat="25.46157" lon="-80.433658">
        <ele>1.000006</ele>
        <time>2024-03-10T08:47:19.000Z</time>
      </trkpt>
      <trkpt lat="25.462382" lon="-80.433643">
        <ele>1.000006</ele>
        <time>2024-03-10T08:47:28.000Z</time>
      </trkpt>
      <trkpt lat="25.462464" lon="-80.433649">
        <ele>1.000006</ele>
        <time>2024-03-10T08:47:29.000Z</time>
      </trkpt>
      <trkpt lat="25.462462" lon="-80.433664">
        <ele>1.000006</ele>
        <time>2024-03-10T08:47:29.000Z</time>
      </trkpt>
      <trkpt lat="25.462469" lon="-80.433778">
        <ele>1.000006</ele>
        <time>2024-03-10T08:47:30.000Z</time>
      </trkpt>
      <trkpt lat="25.461573" lon="-80.43378">
        <ele>1.000006</ele>
        <time>2024-03-10T08:47:40.000Z</time>
      </trkpt>
      <trkpt lat="25.460977" lon="-80.433737">
        <ele>1.000006</ele>
        <time>2024-03-10T08:47:47.000Z</time>
      </trkpt>
      <trkpt lat="25.46099" lon="-80.433664">
        <ele>1.000006</ele>
        <time>2024-03-10T08:47:48.000Z</time>
      </trkpt>
      <trkpt lat="25.460226" lon="-80.433617">
        <ele>1.000006</ele>
        <time>2024-03-10T08:47:57.000Z</time>
      </trkpt>
      <trkpt lat="25.459732" lon="-80.4334">
        <ele>1.000006</ele>
        <time>2024-03-10T08:48:03.000Z</time>
      </trkpt>
      <trkpt lat="25.459396" lon="-80.433169">
        <ele>1.000006</ele>
        <time>2024-03-10T08:48:07.000Z</time>
      </trkpt>
      <trkpt lat="25.459094" lon="-80.43291">
        <ele>1.000006</ele>
        <time>2024-03-10T08:48:11.000Z</time>
      </trkpt>
      <trkpt lat="25.458798" lon="-80.4326">
        <ele>1.000006</ele>
        <time>2024-03-10T08:48:16.000Z</time>
      </trkpt>
      <trkpt lat="25.458595" lon="-80.432141">
        <ele>1.000006</ele>
        <time>2024-03-10T08:48:21.000Z</time>
      </trkpt>
      <trkpt lat="25.458571" lon="-80.431495">
        <ele>1.000006</ele>
        <time>2024-03-10T08:48:27.000Z</time>
      </trkpt>
      <trkpt lat="25.458444" lon="-80.43094">
        <ele>1.000006</ele>
        <time>2024-03-10T08:48:33.000Z</time>
      </trkpt>
      <trkpt lat="25.458083" lon="-80.430351">
        <ele>1.000006</ele>
        <time>2024-03-10T08:48:40.000Z</time>
      </trkpt>
      <trkpt lat="25.457005" lon="-80.429452">
        <ele>1.000006</ele>
        <time>2024-03-10T08:48:55.000Z</time>
      </trkpt>
      <trkpt lat="25.456406" lon="-80.428913">
        <ele>1.000006</ele>
        <time>2024-03-10T08:49:04.000Z</time>
      </trkpt>
      <trkpt lat="25.456153" lon="-80.428618">
        <ele>1.000006</ele>
        <time>2024-03-10T08:49:08.000Z</time>
      </trkpt>
      <trkpt lat="25.455879" lon="-80.428202">
        <ele>1.000006</ele>
        <time>2024-03-10T08:49:13.000Z</time>
      </trkpt>
      <trkpt lat="25.455626" lon="-80.427613">
        <ele>1.000006</ele>
        <time>2024-03-10T08:49:20.000Z</time>
      </trkpt>
      <trkpt lat="25.455532" lon="-80.427204">
        <ele>1.000006</ele>
        <time>2024-03-10T08:49:24.000Z</time>
      </trkpt>
      <trkpt lat="25.455472" lon="-80.426673">
        <ele>1.000006</ele>
        <time>2024-03-10T08:49:29.000Z</time>
      </trkpt>
      <trkpt lat="25.455468" lon="-80.423983">
        <ele>1.000006</ele>
        <time>2024-03-10T08:49:56.000Z</time>
      </trkpt>
      <trkpt lat="25.455473" lon="-80.423308">
        <ele>1.000006</ele>
        <time>2024-03-10T08:50:03.000Z</time>
      </trkpt>
      <trkpt lat="25.455489" lon="-80.422714">
        <ele>1.000006</ele>
        <time>2024-03-10T08:50:09.000Z</time>
      </trkpt>
      <trkpt lat="25.4555" lon="-80.421987">
        <ele>1.000006</ele>
        <time>2024-03-10T08:50:16.000Z</time>
      </trkpt>
      <trkpt lat="25.45549" lon="-80.42186">
        <ele>1.000006</ele>
        <time>2024-03-10T08:50:17.000Z</time>
      </trkpt>
      <trkpt lat="25.455479" lon="-80.421555">
        <ele>1.000006</ele>
        <time>2024-03-10T08:50:20.000Z</time>
      </trkpt>
      <trkpt lat="25.455452" lon="-80.42137">
        <ele>1.000006</ele>
        <time>2024-03-10T08:50:22.000Z</time>
      </trkpt>
      <trkpt lat="25.455454" lon="-80.420323">
        <ele>1.000006</ele>
        <time>2024-03-10T08:50:33.000Z</time>
      </trkpt>
      <trkpt lat="25.455514" lon="-80.419994">
        <ele>1.000006</ele>
        <time>2024-03-10T08:50:36.000Z</time>
      </trkpt>
      <trkpt lat="25.45551" lon="-80.416177">
        <ele>1.000006</ele>
        <time>2024-03-10T08:51:14.000Z</time>
      </trkpt>
      <trkpt lat="25.455518" lon="-80.416027">
        <ele>1.000006</ele>
        <time>2024-03-10T08:51:16.000Z</time>
      </trkpt>
      <trkpt lat="25.45552" lon="-80.415708">
        <ele>1.000006</ele>
        <time>2024-03-10T08:51:19.000Z</time>
      </trkpt>
      <trkpt lat="25.455521" lon="-80.414525">
        <ele>1.000006</ele>
        <time>2024-03-10T08:51:31.000Z</time>
      </trkpt>
      <trkpt lat="25.455512" lon="-80.414518">
        <ele>1.000006</ele>
        <time>2024-03-10T08:51:31.000Z</time>
      </trkpt>
      <trkpt lat="25.455509" lon="-80.414513">
        <ele>1.000006</ele>
        <time>2024-03-10T08:51:31.000Z</time>
      </trkpt>
      <trkpt lat="25.455517" lon="-80.41349">
        <ele>1.000006</ele>
        <time>2024-03-10T08:51:41.000Z</time>
      </trkpt>
      <trkpt lat="25.455513" lon="-80.412074">
        <ele>1.000006</ele>
        <time>2024-03-10T08:51:55.000Z</time>
      </trkpt>
      <trkpt lat="25.455518" lon="-80.411996">
        <ele>1.000006</ele>
        <time>2024-03-10T08:51:56.000Z</time>
      </trkpt>
      <trkpt lat="25.455195" lon="-80.412007">
        <ele>1.000006</ele>
        <time>2024-03-10T08:52:00.000Z</time>
      </trkpt>
      <trkpt lat="25.454791" lon="-80.412053">
        <ele>1.000006</ele>
        <time>2024-03-10T08:52:05.000Z</time>
      </trkpt>
      <trkpt lat="25.454393" lon="-80.412252">
        <ele>1.000006</ele>
        <time>2024-03-10T08:52:10.000Z</time>
      </trkpt>
      <trkpt lat="25.454169" lon="-80.412395">
        <ele>1.000006</ele>
        <time>2024-03-10T08:52:13.000Z</time>
      </trkpt>
      <trkpt lat="25.453994" lon="-80.412587">
        <ele>1.000006</ele>
        <time>2024-03-10T08:52:16.000Z</time>
      </trkpt>
      <trkpt lat="25.453902" lon="-80.412678">
        <ele>1.000006</ele>
        <time>2024-03-10T08:52:17.000Z</time>
      </trkpt>
      <trkpt lat="25.452811" lon="-80.414278">
        <ele>1.000006</ele>
        <time>2024-03-10T08:52:37.000Z</time>
      </trkpt>
      <trkpt lat="25.452625" lon="-80.414569">
        <ele>1.000006</ele>
        <time>2024-03-10T08:52:41.000Z</time>
      </trkpt>
      <trkpt lat="25.452258" lon="-80.414978">
        <ele>1.000006</ele>
        <time>2024-03-10T08:52:47.000Z</time>
      </trkpt>
      <trkpt lat="25.452024" lon="-80.415148">
        <ele>1.000006</ele>
        <time>2024-03-10T08:52:50.000Z</time>
      </trkpt>
      <trkpt lat="25.451803" lon="-80.415285">
        <ele>1.000006</ele>
        <time>2024-03-10T08:52:53.000Z</time>
      </trkpt>
      <trkpt lat="25.451587" lon="-80.415399">
        <ele>1.000006</ele>
        <time>2024-03-10T08:52:56.000Z</time>
      </trkpt>
      <trkpt lat="25.45129" lon="-80.415488">
        <ele>1.000006</ele>
        <time>2024-03-10T08:52:59.000Z</time>
      </trkpt>
      <trkpt lat="25.450984" lon="-80.415531">
        <ele>1.000006</ele>
        <time>2024-03-10T08:53:02.000Z</time>
      </trkpt>
      <trkpt lat="25.450542" lon="-80.415547">
        <ele>1.000006</ele>
        <time>2024-03-10T08:53:07.000Z</time>
      </trkpt>
      <trkpt lat="25.450473" lon="-80.41555">
        <ele>1.000006</ele>
        <time>2024-03-10T08:53:08.000Z</time>
      </trkpt>
      <trkpt lat="25.450469" lon="-80.415628">
        <ele>1.000006</ele>
        <time>2024-03-10T08:53:09.000Z</time>
      </trkpt>
      <trkpt lat="25.450467" lon="-80.415911">
        <ele>1.000006</ele>
        <time>2024-03-10T08:53:12.000Z</time>
      </trkpt>
      <trkpt lat="25.450523" lon="-80.41639">
        <ele>1.000006</ele>
        <time>2024-03-10T08:53:17.000Z</time>
      </trkpt>
      <trkpt lat="25.450606" lon="-80.416856">
        <ele>1.000006</ele>
        <time>2024-03-10T08:53:22.000Z</time>
      </trkpt>
      <trkpt lat="25.45116" lon="-80.41841">
        <ele>1.000006</ele>
        <time>2024-03-10T08:53:39.000Z</time>
      </trkpt>
      <trkpt lat="25.451258" lon="-80.41877">
        <ele>1.000006</ele>
        <time>2024-03-10T08:53:43.000Z</time>
      </trkpt>
      <trkpt lat="25.45134" lon="-80.419374">
        <ele>1.000006</ele>
        <time>2024-03-10T08:53:49.000Z</time>
      </trkpt>
      <trkpt lat="25.451373" lon="-80.419994">
        <ele>1.000006</ele>
        <time>2024-03-10T08:53:55.000Z</time>
      </trkpt>
      <trkpt lat="25.451368" lon="-80.422413">
        <ele>1.000006</ele>
        <time>2024-03-10T08:54:19.000Z</time>
      </trkpt>
      <trkpt lat="25.451443" lon="-80.423109">
        <ele>1.000006</ele>
        <time>2024-03-10T08:54:26.000Z</time>
      </trkpt>
      <trkpt lat="25.451505" lon="-80.423549">
        <ele>1.000006</ele>
        <time>2024-03-10T08:54:30.000Z</time>
      </trkpt>
      <trkpt lat="25.451632" lon="-80.424133">
        <ele>1.000006</ele>
        <time>2024-03-10T08:54:36.000Z</time>
      </trkpt>
      <trkpt lat="25.451802" lon="-80.424695">
        <ele>1.000006</ele>
        <time>2024-03-10T08:54:42.000Z</time>
      </trkpt>
      <trkpt lat="25.452148" lon="-80.42553">
        <ele>1.000006</ele>
        <time>2024-03-10T08:54:51.000Z</time>
      </trkpt>
      <trkpt lat="25.453304" lon="-80.428338">
        <ele>1.000006</ele>
        <time>2024-03-10T08:55:22.000Z</time>
      </trkpt>
      <trkpt lat="25.453462" lon="-80.428732">
        <ele>1.000006</ele>
        <time>2024-03-10T08:55:26.000Z</time>
      </trkpt>
      <trkpt lat="25.453662" lon="-80.42918">
        <ele>1.000006</ele>
        <time>2024-03-10T08:55:31.000Z</time>
      </trkpt>
      <trkpt lat="25.453905" lon="-80.43">
        <ele>1.000006</ele>
        <time>2024-03-10T08:55:40.000Z</time>
      </trkpt>
      <trkpt lat="25.454025" lon="-80.430703">
        <ele>1.000006</ele>
        <time>2024-03-10T08:55:47.000Z</time>
      </trkpt>
      <trkpt lat="25.454088" lon="-80.431425">
        <ele>1.000006</ele>
        <time>2024-03-10T08:55:54.000Z</time>
      </trkpt>
      <trkpt lat="25.453952" lon="-80.431417">
        <ele>1.000006</ele>
        <time>2024-03-10T08:55:56.000Z</time>
      </trkpt>
      <trkpt lat="25.453916" lon="-80.431014">
        <ele>1.000006</ele>
        <time>2024-03-10T08:56:00.000Z</time>
      </trkpt>
      <trkpt lat="25.453861" lon="-80.430433">
        <ele>1.000006</ele>
        <time>2024-03-10T08:56:06.000Z</time>
      </trkpt>
      <trkpt lat="25.45368" lon="-80.429762">
        <ele>1.000006</ele>
        <time>2024-03-10T08:56:13.000Z</time>
      </trkpt>
      <trkpt lat="25.453334" lon="-80.428802">
        <ele>1.000006</ele>
        <time>2024-03-10T08:56:23.000Z</time>
      </trkpt>
      <trkpt lat="25.453167" lon="-80.428405">
        <ele>1.000006</ele>
        <time>2024-03-10T08:56:27.000Z</time>
      </trkpt>
      <trkpt lat="25.45201" lon="-80.425597">
        <ele>1.000006</ele>
        <time>2024-03-10T08:56:58.000Z</time>
      </trkpt>
      <trkpt lat="25.451663" lon="-80.424726">
        <ele>1.000006</ele>
        <time>2024-03-10T08:57:08.000Z</time>
      </trkpt>
      <trkpt lat="25.451483" lon="-80.424164">
        <ele>1.000006</ele>
        <time>2024-03-10T08:57:14.000Z</time>
      </trkpt>
      <trkpt lat="25.451356" lon="-80.423572">
        <ele>1.000006</ele>
        <time>2024-03-10T08:57:20.000Z</time>
      </trkpt>
      <trkpt lat="25.451245" lon="-80.422864">
        <ele>1.000006</ele>
        <time>2024-03-10T08:57:27.000Z</time>
      </trkpt>
      <trkpt lat="25.451238" lon="-80.422546">
        <ele>1.000006</ele>
        <time>2024-03-10T08:57:30.000Z</time>
      </trkpt>
      <trkpt lat="25.451242" lon="-80.420882">
        <ele>1.000006</ele>
        <time>2024-03-10T08:57:47.000Z</time>
      </trkpt>
      <trkpt lat="25.451248" lon="-80.420325">
        <ele>1.000006</ele>
        <time>2024-03-10T08:57:53.000Z</time>
      </trkpt>
      <trkpt lat="25.451242" lon="-80.419999">
        <ele>1.000006</ele>
        <time>2024-03-10T08:57:56.000Z</time>
      </trkpt>
      <trkpt lat="25.451207" lon="-80.419188">
        <ele>1.000006</ele>
        <time>2024-03-10T08:58:04.000Z</time>
      </trkpt>
      <trkpt lat="25.451152" lon="-80.418839">
        <ele>1.000006</ele>
        <time>2024-03-10T08:58:08.000Z</time>
      </trkpt>
      <trkpt lat="25.450458" lon="-80.41681">
        <ele>1.000006</ele>
        <time>2024-03-10T08:58:30.000Z</time>
      </trkpt>
      <trkpt lat="25.450405" lon="-80.416433">
        <ele>1.000006</ele>
        <time>2024-03-10T08:58:34.000Z</time>
      </trkpt>
      <trkpt lat="25.450337" lon="-80.415629">
        <ele>1.000006</ele>
        <time>2024-03-10T08:58:42.000Z</time>
      </trkpt>
      <trkpt lat="25.450342" lon="-80.415556">
        <ele>1.000006</ele>
        <time>2024-03-10T08:58:43.000Z</time>
      </trkpt>
      <trkpt lat="25.450273" lon="-80.415548">
        <ele>1.000006</ele>
        <time>2024-03-10T08:58:44.000Z</time>
      </trkpt>
      <trkpt lat="25.448709" lon="-80.41555">
        <ele>1.000006</ele>
        <time>2024-03-10T08:59:01.000Z</time>
      </trkpt>
      <trkpt lat="25.448567" lon="-80.415584">
        <ele>1.000006</ele>
        <time>2024-03-10T08:59:03.000Z</time>
      </trkpt>
      <trkpt lat="25.448371" lon="-80.41568">
        <ele>1.000006</ele>
        <time>2024-03-10T08:59:05.000Z</time>
      </trkpt>
      <trkpt lat="25.448238" lon="-80.415805">
        <ele>1.000006</ele>
        <time>2024-03-10T08:59:07.000Z</time>
      </trkpt>
      <trkpt lat="25.448127" lon="-80.415912">
        <ele>1.000006</ele>
        <time>2024-03-10T08:59:09.000Z</time>
      </trkpt>
      <trkpt lat="25.448133" lon="-80.415931">
        <ele>1.000006</ele>
        <time>2024-03-10T08:59:09.000Z</time>
      </trkpt>
      <trkpt lat="25.4481" lon="-80.415957">
        <ele>1.000006</ele>
        <time>2024-03-10T08:59:09.000Z</time>
      </trkpt>
      <trkpt lat="25.447989" lon="-80.416139">
        <ele>1.000006</ele>
        <time>2024-03-10T08:59:11.000Z</time>
      </trkpt>
      <trkpt lat="25.447896" lon="-80.416521">
        <ele>1.000006</ele>
        <time>2024-03-10T08:59:15.000Z</time>
      </trkpt>
      <trkpt lat="25.447872" lon="-80.41998">
        <ele>1.000006</ele>
        <time>2024-03-10T08:59:50.000Z</time>
      </trkpt>
      <trkpt lat="25.447856" lon="-80.42561">
        <ele>1.000006</ele>
        <time>2024-03-10T09:00:47.000Z</time>
      </trkpt>
      <trkpt lat="25.447846" lon="-80.428486">
        <ele>1.000006</ele>
        <time>2024-03-10T09:01:16.000Z</time>
      </trkpt>
      <trkpt lat="25.44783" lon="-80.430917">
        <ele>1.000006</ele>
        <time>2024-03-10T09:01:40.000Z</time>
      </trkpt>
      <trkpt lat="25.447886" lon="-80.431145">
        <ele>1.000006</ele>
        <time>2024-03-10T09:01:42.000Z</time>
      </trkpt>
      <trkpt lat="25.448009" lon="-80.43138">
        <ele>1.000006</ele>
        <time>2024-03-10T09:01:45.000Z</time>
      </trkpt>
      <trkpt lat="25.448087" lon="-80.431477">
        <ele>1.000006</ele>
        <time>2024-03-10T09:01:46.000Z</time>
      </trkpt>
      <trkpt lat="25.448539" lon="-80.431919">
        <ele>1.000006</ele>
        <time>2024-03-10T09:01:53.000Z</time>
      </trkpt>
      <trkpt lat="25.448684" lon="-80.432121">
        <ele>1.000006</ele>
        <time>2024-03-10T09:01:56.000Z</time>
      </trkpt>
      <trkpt lat="25.449027" lon="-80.432643">
        <ele>1.000006</ele>
        <time>2024-03-10T09:02:02.000Z</time>
      </trkpt>
      <trkpt lat="25.449218" lon="-80.433125">
        <ele>1.000006</ele>
        <time>2024-03-10T09:02:07.000Z</time>
      </trkpt>
      <trkpt lat="25.449276" lon="-80.433262">
        <ele>1.000006</ele>
        <time>2024-03-10T09:02:09.000Z</time>
      </trkpt>
      <trkpt lat="25.449593" lon="-80.434443">
        <ele>1.000006</ele>
        <time>2024-03-10T09:02:21.000Z</time>
      </trkpt>
      <trkpt lat="25.449594" lon="-80.434455">
        <ele>1.000006</ele>
        <time>2024-03-10T09:02:21.000Z</time>
      </trkpt>
      <trkpt lat="25.449519" lon="-80.434477">
        <ele>1.000006</ele>
        <time>2024-03-10T09:02:22.000Z</time>
      </trkpt>
      <trkpt lat="25.449522" lon="-80.434478">
        <ele>1.000006</ele>
        <time>2024-03-10T09:02:22.000Z</time>
      </trkpt>
      <trkpt lat="25.449468" lon="-80.434492">
        <ele>1.000006</ele>
        <time>2024-03-10T09:02:23.000Z</time>
      </trkpt>
      <trkpt lat="25.449093" lon="-80.433204">
        <ele>1.000006</ele>
        <time>2024-03-10T09:02:37.000Z</time>
      </trkpt>
      <trkpt lat="25.448867" lon="-80.432626">
        <ele>1.000006</ele>
        <time>2024-03-10T09:02:43.000Z</time>
      </trkpt>
      <trkpt lat="25.448701" lon="-80.432318">
        <ele>1.000006</ele>
        <time>2024-03-10T09:02:47.000Z</time>
      </trkpt>
      <trkpt lat="25.448101" lon="-80.431488">
        <ele>1.000006</ele>
        <time>2024-03-10T09:02:58.000Z</time>
      </trkpt>
      <trkpt lat="25.448005" lon="-80.431386">
        <ele>1.000006</ele>
        <time>2024-03-10T09:02:59.000Z</time>
      </trkpt>
      <trkpt lat="25.447883" lon="-80.431147">
        <ele>1.000006</ele>
        <time>2024-03-10T09:03:02.000Z</time>
      </trkpt>
      <trkpt lat="25.447833" lon="-80.430913">
        <ele>1.000006</ele>
        <time>2024-03-10T09:03:04.000Z</time>
      </trkpt>
      <trkpt lat="25.447839" lon="-80.428485">
        <ele>1.000006</ele>
        <time>2024-03-10T09:03:28.000Z</time>
      </trkpt>
      <trkpt lat="25.447843" lon="-80.425603">
        <ele>1.000006</ele>
        <time>2024-03-10T09:03:57.000Z</time>
      </trkpt>
      <trkpt lat="25.447866" lon="-80.419985">
        <ele>1.000006</ele>
        <time>2024-03-10T09:04:53.000Z</time>
      </trkpt>
      <trkpt lat="25.447888" lon="-80.416514">
        <ele>1.000006</ele>
        <time>2024-03-10T09:05:28.000Z</time>
      </trkpt>
      <trkpt lat="25.447856" lon="-80.416305">
        <ele>1.000006</ele>
        <time>2024-03-10T09:05:30.000Z</time>
      </trkpt>
      <trkpt lat="25.44783" lon="-80.416033">
        <ele>1.000006</ele>
        <time>2024-03-10T09:05:33.000Z</time>
      </trkpt>
      <trkpt lat="25.447879" lon="-80.415574">
        <ele>1.000006</ele>
        <time>2024-03-10T09:05:38.000Z</time>
      </trkpt>
      <trkpt lat="25.44794" lon="-80.41188">
        <ele>1.000006</ele>
        <time>2024-03-10T09:06:15.000Z</time>
      </trkpt>
      <trkpt lat="25.447922" lon="-80.409463">
        <ele>1.000006</ele>
        <time>2024-03-10T09:06:39.000Z</time>
      </trkpt>
      <trkpt lat="25.447913" lon="-80.407793">
        <ele>1.000006</ele>
        <time>2024-03-10T09:06:56.000Z</time>
      </trkpt>
      <trkpt lat="25.447954" lon="-80.403765">
        <ele>1.000006</ele>
        <time>2024-03-10T09:07:36.000Z</time>
      </trkpt>
      <trkpt lat="25.447969" lon="-80.395677">
        <ele>1.000006</ele>
        <time>2024-03-10T09:08:57.000Z</time>
      </trkpt>
      <trkpt lat="25.447979" lon="-80.391589">
        <ele>1.000006</ele>
        <time>2024-03-10T09:09:38.000Z</time>
      </trkpt>
      <trkpt lat="25.447993" lon="-80.387539">
        <ele>1.000006</ele>
        <time>2024-03-10T09:10:19.000Z</time>
      </trkpt>
      <trkpt lat="25.448009" lon="-80.383504">
        <ele>1.000006</ele>
        <time>2024-03-10T09:11:00.000Z</time>
      </trkpt>
      <trkpt lat="25.448015" lon="-80.37948">
        <ele>1.000006</ele>
        <time>2024-03-10T09:11:40.000Z</time>
      </trkpt>
      <trkpt lat="25.448009" lon="-80.383504">
        <ele>1.000006</ele>
        <time>2024-03-10T09:12:20.000Z</time>
      </trkpt>
      <trkpt lat="25.448" lon="-80.387534">
        <ele>1.000006</ele>
        <time>2024-03-10T09:13:00.000Z</time>
      </trkpt>
      <trkpt lat="25.447966" lon="-80.391594">
        <ele>1.000006</ele>
        <time>2024-03-10T09:13:41.000Z</time>
      </trkpt>
      <trkpt lat="25.447967" lon="-80.395669">
        <ele>1.000006</ele>
        <time>2024-03-10T09:14:22.000Z</time>
      </trkpt>
      <trkpt lat="25.447947" lon="-80.403772">
        <ele>1.000006</ele>
        <time>2024-03-10T09:15:43.000Z</time>
      </trkpt>
      <trkpt lat="25.44791" lon="-80.407778">
        <ele>1.000006</ele>
        <time>2024-03-10T09:16:23.000Z</time>
      </trkpt>
      <trkpt lat="25.447923" lon="-80.409376">
        <ele>1.000006</ele>
        <time>2024-03-10T09:16:39.000Z</time>
      </trkpt>
      <trkpt lat="25.447913" lon="-80.409381">
        <ele>1.000006</ele>
        <time>2024-03-10T09:16:39.000Z</time>
      </trkpt>
      <trkpt lat="25.447911" lon="-80.409465">
        <ele>1.000006</ele>
        <time>2024-03-10T09:16:40.000Z</time>
      </trkpt>
      <trkpt lat="25.44794" lon="-80.411886">
        <ele>1.000006</ele>
        <time>2024-03-10T09:17:04.000Z</time>
      </trkpt>
      <trkpt lat="25.447866" lon="-80.415566">
        <ele>1.000006</ele>
        <time>2024-03-10T09:17:41.000Z</time>
      </trkpt>
      <trkpt lat="25.447894" lon="-80.415699">
        <ele>1.000006</ele>
        <time>2024-03-10T09:17:42.000Z</time>
      </trkpt>
      <trkpt lat="25.44801" lon="-80.415851">
        <ele>1.000006</ele>
        <time>2024-03-10T09:17:44.000Z</time>
      </trkpt>
      <trkpt lat="25.44814" lon="-80.415663">
        <ele>1.000006</ele>
        <time>2024-03-10T09:17:46.000Z</time>
      </trkpt>
      <trkpt lat="25.448225" lon="-80.415572">
        <ele>1.000006</ele>
        <time>2024-03-10T09:17:47.000Z</time>
      </trkpt>
      <trkpt lat="25.448529" lon="-80.415426">
        <ele>1.000006</ele>
        <time>2024-03-10T09:17:51.000Z</time>
      </trkpt>
      <trkpt lat="25.448917" lon="-80.415377">
        <ele>1.000006</ele>
        <time>2024-03-10T09:17:55.000Z</time>
      </trkpt>
      <trkpt lat="25.448999" lon="-80.41538">
        <ele>1.000006</ele>
        <time>2024-03-10T09:17:56.000Z</time>
      </trkpt>
      <trkpt lat="25.449017" lon="-80.415389">
        <ele>1.000006</ele>
        <time>2024-03-10T09:17:56.000Z</time>
      </trkpt>
      <trkpt lat="25.450278" lon="-80.415396">
        <ele>1.000006</ele>
        <time>2024-03-10T09:18:10.000Z</time>
      </trkpt>
      <trkpt lat="25.450333" lon="-80.415396">
        <ele>1.000006</ele>
        <time>2024-03-10T09:18:11.000Z</time>
      </trkpt>
      <trkpt lat="25.450473" lon="-80.415406">
        <ele>1.000006</ele>
        <time>2024-03-10T09:18:13.000Z</time>
      </trkpt>
      <trkpt lat="25.450551" lon="-80.415401">
        <ele>1.000006</ele>
        <time>2024-03-10T09:18:14.000Z</time>
      </trkpt>
      <trkpt lat="25.451016" lon="-80.415382">
        <ele>1.000006</ele>
        <time>2024-03-10T09:18:19.000Z</time>
      </trkpt>
      <trkpt lat="25.451265" lon="-80.415344">
        <ele>1.000006</ele>
        <time>2024-03-10T09:18:22.000Z</time>
      </trkpt>
      <trkpt lat="25.451492" lon="-80.415283">
        <ele>1.000006</ele>
        <time>2024-03-10T09:18:25.000Z</time>
      </trkpt>
      <trkpt lat="25.451934" lon="-80.41507">
        <ele>1.000006</ele>
        <time>2024-03-10T09:18:30.000Z</time>
      </trkpt>
      <trkpt lat="25.452104" lon="-80.414916">
        <ele>1.000006</ele>
        <time>2024-03-10T09:18:32.000Z</time>
      </trkpt>
      <trkpt lat="25.45232" lon="-80.414708">
        <ele>1.000006</ele>
        <time>2024-03-10T09:18:35.000Z</time>
      </trkpt>
      <trkpt lat="25.452518" lon="-80.414462">
        <ele>1.000006</ele>
        <time>2024-03-10T09:18:38.000Z</time>
      </trkpt>
      <trkpt lat="25.452701" lon="-80.41419">
        <ele>1.000006</ele>
        <time>2024-03-10T09:18:41.000Z</time>
      </trkpt>
      <trkpt lat="25.453028" lon="-80.413725">
        <ele>1.000006</ele>
        <time>2024-03-10T09:18:47.000Z</time>
      </trkpt>
      <trkpt lat="25.453806" lon="-80.41259">
        <ele>1.000006</ele>
        <time>2024-03-10T09:19:01.000Z</time>
      </trkpt>
      <trkpt lat="25.453921" lon="-80.412466">
        <ele>1.000006</ele>
        <time>2024-03-10T09:19:03.000Z</time>
      </trkpt>
      <trkpt lat="25.454151" lon="-80.412238">
        <ele>1.000006</ele>
        <time>2024-03-10T09:19:06.000Z</time>
      </trkpt>
      <trkpt lat="25.454506" lon="-80.412027">
        <ele>1.000006</ele>
        <time>2024-03-10T09:19:10.000Z</time>
      </trkpt>
      <trkpt lat="25.454759" lon="-80.411921">
        <ele>1.000006</ele>
        <time>2024-03-10T09:19:13.000Z</time>
      </trkpt>
      <trkpt lat="25.455177" lon="-80.411816">
        <ele>1.000006</ele>
        <time>2024-03-10T09:19:18.000Z</time>
      </trkpt>
      <trkpt lat="25.455527" lon="-80.411813">
        <ele>1.000006</ele>
        <time>2024-03-10T09:19:22.000Z</time>
      </trkpt>
      <trkpt lat="25.455515" lon="-80.411994">
        <ele>1.000006</ele>
        <time>2024-03-10T09:19:24.000Z</time>
      </trkpt>
      <trkpt lat="25.455524" lon="-80.412074">
        <ele>1.000006</ele>
        <time>2024-03-10T09:19:25.000Z</time>
      </trkpt>
      <trkpt lat="25.455525" lon="-80.413492">
        <ele>1.000006</ele>
        <time>2024-03-10T09:19:39.000Z</time>
      </trkpt>
      <trkpt lat="25.455519" lon="-80.414508">
        <ele>1.000006</ele>
        <time>2024-03-10T09:19:49.000Z</time>
      </trkpt>
      <trkpt lat="25.455522" lon="-80.414518">
        <ele>1.000006</ele>
        <time>2024-03-10T09:19:49.000Z</time>
      </trkpt>
      <trkpt lat="25.455514" lon="-80.414523">
        <ele>1.000006</ele>
        <time>2024-03-10T09:19:49.000Z</time>
      </trkpt>
      <trkpt lat="25.455519" lon="-80.415703">
        <ele>1.000006</ele>
        <time>2024-03-10T09:20:01.000Z</time>
      </trkpt>
      <trkpt lat="25.455503" lon="-80.416041">
        <ele>1.000006</ele>
        <time>2024-03-10T09:20:04.000Z</time>
      </trkpt>
      <trkpt lat="25.455514" lon="-80.416182">
        <ele>1.000006</ele>
        <time>2024-03-10T09:20:05.000Z</time>
      </trkpt>
      <trkpt lat="25.455519" lon="-80.420003">
        <ele>1.000006</ele>
        <time>2024-03-10T09:20:43.000Z</time>
      </trkpt>
      <trkpt lat="25.45637" lon="-80.420003">
        <ele>1.000006</ele>
        <time>2024-03-10T09:20:52.000Z</time>
      </trkpt>
      <trkpt lat="25.457626" lon="-80.419999">
        <ele>1.000006</ele>
        <time>2024-03-10T09:21:06.000Z</time>
      </trkpt>
      <trkpt lat="25.457988" lon="-80.420005">
        <ele>1.000006</ele>
        <time>2024-03-10T09:21:10.000Z</time>
      </trkpt>
      <trkpt lat="25.462606" lon="-80.420012">
        <ele>1.000006</ele>
        <time>2024-03-10T09:22:01.000Z</time>
      </trkpt>
      <trkpt lat="25.462624" lon="-80.420008">
        <ele>1.000006</ele>
        <time>2024-03-10T09:22:01.000Z</time>
      </trkpt>
      <trkpt lat="25.46262" lon="-80.42">
        <ele>1.000006</ele>
        <time>2024-03-10T09:22:01.000Z</time>
      </trkpt>
      <trkpt lat="25.457979" lon="-80.420007">
        <ele>1.000006</ele>
        <time>2024-03-10T09:22:53.000Z</time>
      </trkpt>
      <trkpt lat="25.457614" lon="-80.420007">
        <ele>1.000006</ele>
        <time>2024-03-10T09:22:57.000Z</time>
      </trkpt>
      <trkpt lat="25.456366" lon="-80.419993">
        <ele>1.000006</ele>
        <time>2024-03-10T09:23:11.000Z</time>
      </trkpt>
      <trkpt lat="25.455506" lon="-80.419991">
        <ele>1.000006</ele>
        <time>2024-03-10T09:23:21.000Z</time>
      </trkpt>
      <trkpt lat="25.455569" lon="-80.420272">
        <ele>1.000006</ele>
        <time>2024-03-10T09:23:24.000Z</time>
      </trkpt>
      <trkpt lat="25.455549" lon="-80.420731">
        <ele>1.000006</ele>
        <time>2024-03-10T09:23:29.000Z</time>
      </trkpt>
      <trkpt lat="25.455555" lon="-80.420739">
        <ele>1.000006</ele>
        <time>2024-03-10T09:23:29.000Z</time>
      </trkpt>
      <trkpt lat="25.455537" lon="-80.42173">
        <ele>1.000006</ele>
        <time>2024-03-10T09:23:39.000Z</time>
      </trkpt>
      <trkpt lat="25.455535" lon="-80.422702">
        <ele>1.000006</ele>
        <time>2024-03-10T09:23:49.000Z</time>
      </trkpt>
      <trkpt lat="25.45551" lon="-80.423698">
        <ele>1.000006</ele>
        <time>2024-03-10T09:23:59.000Z</time>
      </trkpt>
      <trkpt lat="25.455506" lon="-80.424684">
        <ele>1.000006</ele>
        <time>2024-03-10T09:24:09.000Z</time>
      </trkpt>
      <trkpt lat="25.455488" lon="-80.425671">
        <ele>1.000006</ele>
        <time>2024-03-10T09:24:19.000Z</time>
      </trkpt>
      <trkpt lat="25.455469" lon="-80.42665">
        <ele>1.000006</ele>
        <time>2024-03-10T09:24:29.000Z</time>
      </trkpt>
      <trkpt lat="25.455472" lon="-80.426656">
        <ele>1.000006</ele>
        <time>2024-03-10T09:24:29.000Z</time>
      </trkpt>
      <trkpt lat="25.455613" lon="-80.427265">
        <ele>1.000006</ele>
        <time>2024-03-10T09:24:35.000Z</time>
      </trkpt>
      <trkpt lat="25.45573" lon="-80.427878">
        <ele>1.000006</ele>
        <time>2024-03-10T09:24:41.000Z</time>
      </trkpt>
      <trkpt lat="25.455741" lon="-80.42788">
        <ele>1.000006</ele>
        <time>2024-03-10T09:24:41.000Z</time>
      </trkpt>
      <trkpt lat="25.456192" lon="-80.428662">
        <ele>1.000006</ele>
        <time>2024-03-10T09:24:50.000Z</time>
      </trkpt>
      <trkpt lat="25.456201" lon="-80.428665">
        <ele>1.000006</ele>
        <time>2024-03-10T09:24:50.000Z</time>
      </trkpt>
      <trkpt lat="25.45639" lon="-80.42891">
        <ele>1.000006</ele>
        <time>2024-03-10T09:24:53.000Z</time>
      </trkpt>
      <trkpt lat="25.457011" lon="-80.429456">
        <ele>1.000006</ele>
        <time>2024-03-10T09:25:02.000Z</time>
      </trkpt>
      <trkpt lat="25.458092" lon="-80.430363">
        <ele>1.000006</ele>
        <time>2024-03-10T09:25:17.000Z</time>
      </trkpt>
      <trkpt lat="25.458092" lon="-80.430368">
        <ele>1.000006</ele>
        <time>2024-03-10T09:25:17.000Z</time>
      </trkpt>
      <trkpt lat="25.458106" lon="-80.43039">
        <ele>1.000006</ele>
        <time>2024-03-10T09:25:17.000Z</time>
      </trkpt>
      <trkpt lat="25.458433" lon="-80.43094">
        <ele>1.000006</ele>
        <time>2024-03-10T09:25:24.000Z</time>
      </trkpt>
      <trkpt lat="25.458454" lon="-80.430972">
        <ele>1.000006</ele>
        <time>2024-03-10T09:25:24.000Z</time>
      </trkpt>
      <trkpt lat="25.458448" lon="-80.430985">
        <ele>1.000006</ele>
        <time>2024-03-10T09:25:24.000Z</time>
      </trkpt>
      <trkpt lat="25.458567" lon="-80.431499">
        <ele>1.000006</ele>
        <time>2024-03-10T09:25:29.000Z</time>
      </trkpt>
      <trkpt lat="25.458563" lon="-80.431551">
        <ele>1.000006</ele>
        <time>2024-03-10T09:25:30.000Z</time>
      </trkpt>
      <trkpt lat="25.458574" lon="-80.431547">
        <ele>1.000006</ele>
        <time>2024-03-10T09:25:30.000Z</time>
      </trkpt>
      <trkpt lat="25.458603" lon="-80.432146">
        <ele>1.000006</ele>
        <time>2024-03-10T09:25:36.000Z</time>
      </trkpt>
      <trkpt lat="25.458606" lon="-80.432171">
        <ele>1.000006</ele>
        <time>2024-03-10T09:25:36.000Z</time>
      </trkpt>
      <trkpt lat="25.458618" lon="-80.432172">
        <ele>1.000006</ele>
        <time>2024-03-10T09:25:36.000Z</time>
      </trkpt>
      <trkpt lat="25.4588" lon="-80.432585">
        <ele>1.000006</ele>
        <time>2024-03-10T09:25:41.000Z</time>
      </trkpt>
      <trkpt lat="25.458789" lon="-80.432585">
        <ele>1.000006</ele>
        <time>2024-03-10T09:25:41.000Z</time>
      </trkpt>
      <trkpt lat="25.459095" lon="-80.432909">
        <ele>1.000006</ele>
        <time>2024-03-10T09:25:46.000Z</time>
      </trkpt>
      <trkpt lat="25.459096" lon="-80.432915">
        <ele>1.000006</ele>
        <time>2024-03-10T09:25:46.000Z</time>
      </trkpt>
      <trkpt lat="25.459092" lon="-80.432925">
        <ele>1.000006</ele>
        <time>2024-03-10T09:25:46.000Z</time>
      </trkpt>
      <trkpt lat="25.459409" lon="-80.43317">
        <ele>1.000006</ele>
        <time>2024-03-10T09:25:50.000Z</time>
      </trkpt>
      <trkpt lat="25.459731" lon="-80.433411">
        <ele>1.000006</ele>
        <time>2024-03-10T09:25:54.000Z</time>
      </trkpt>
      <trkpt lat="25.460229" lon="-80.433618">
        <ele>1.000006</ele>
        <time>2024-03-10T09:26:00.000Z</time>
      </trkpt>
      <trkpt lat="25.460986" lon="-80.433673">
        <ele>1.000006</ele>
        <time>2024-03-10T09:26:08.000Z</time>
      </trkpt>
      <trkpt lat="25.461106" lon="-80.433642">
        <ele>1.000006</ele>
        <time>2024-03-10T09:26:09.000Z</time>
      </trkpt>
      <trkpt lat="25.46158" lon="-80.433649">
        <ele>1.000006</ele>
        <time>2024-03-10T09:26:14.000Z</time>
      </trkpt>
      <trkpt lat="25.46238" lon="-80.433642">
        <ele>1.000006</ele>
        <time>2024-03-10T09:26:23.000Z</time>
      </trkpt>
      <trkpt lat="25.462457" lon="-80.433656">
        <ele>1.000006</ele>
        <time>2024-03-10T09:26:24.000Z</time>
      </trkpt>
      <trkpt lat="25.462461" lon="-80.433658">
        <ele>1.000006</ele>
        <time>2024-03-10T09:26:24.000Z</time>
      </trkpt>
      <trkpt lat="25.462473" lon="-80.433763">
        <ele>1.000006</ele>
        <time>2024-03-10T09:26:25.000Z</time>
      </trkpt>
      <trkpt lat="25.461584" lon="-80.433786">
        <ele>1.000006</ele>
        <time>2024-03-10T09:26:35.000Z</time>
      </trkpt>
      <trkpt lat="25.46097" lon="-80.433744">
        <ele>1.000006</ele>
        <time>2024-03-10T09:26:42.000Z</time>
      </trkpt>
      <trkpt lat="25.460977" lon="-80.433671">
        <ele>1.000006</ele>
        <time>2024-03-10T09:26:43.000Z</time>
      </trkpt>
      <trkpt lat="25.460229" lon="-80.433626">
        <ele>1.000006</ele>
        <time>2024-03-10T09:26:51.000Z</time>
      </trkpt>
      <trkpt lat="25.459728" lon="-80.433405">
        <ele>1.000006</ele>
        <time>2024-03-10T09:26:57.000Z</time>
      </trkpt>
      <trkpt lat="25.459412" lon="-80.433181">
        <ele>1.000006</ele>
        <time>2024-03-10T09:27:01.000Z</time>
      </trkpt>
      <trkpt lat="25.459089" lon="-80.432905">
        <ele>1.000006</ele>
        <time>2024-03-10T09:27:06.000Z</time>
      </trkpt>
      <trkpt lat="25.458803" lon="-80.432596">
        <ele>1.000006</ele>
        <time>2024-03-10T09:27:10.000Z</time>
      </trkpt>
      <trkpt lat="25.458595" lon="-80.432144">
        <ele>1.000006</ele>
        <time>2024-03-10T09:27:15.000Z</time>
      </trkpt>
      <trkpt lat="25.45856" lon="-80.431507">
        <ele>1.000006</ele>
        <time>2024-03-10T09:27:21.000Z</time>
      </trkpt>
      <trkpt lat="25.458446" lon="-80.430946">
        <ele>1.000006</ele>
        <time>2024-03-10T09:27:27.000Z</time>
      </trkpt>
      <trkpt lat="25.458088" lon="-80.430367">
        <ele>1.000006</ele>
        <time>2024-03-10T09:27:34.000Z</time>
      </trkpt>
      <trkpt lat="25.457006" lon="-80.429458">
        <ele>1.000006</ele>
        <time>2024-03-10T09:27:49.000Z</time>
      </trkpt>
      <trkpt lat="25.456389" lon="-80.428903">
        <ele>1.000006</ele>
        <time>2024-03-10T09:27:58.000Z</time>
      </trkpt>
      <trkpt lat="25.456157" lon="-80.428626">
        <ele>1.000006</ele>
        <time>2024-03-10T09:28:02.000Z</time>
      </trkpt>
      <trkpt lat="25.455881" lon="-80.428203">
        <ele>1.000006</ele>
        <time>2024-03-10T09:28:07.000Z</time>
      </trkpt>
      <trkpt lat="25.45562" lon="-80.427617">
        <ele>1.000006</ele>
        <time>2024-03-10T09:28:14.000Z</time>
      </trkpt>
      <trkpt lat="25.455538" lon="-80.4272">
        <ele>1.000006</ele>
        <time>2024-03-10T09:28:18.000Z</time>
      </trkpt>
      <trkpt lat="25.455472" lon="-80.426676">
        <ele>1.000006</ele>
        <time>2024-03-10T09:28:23.000Z</time>
      </trkpt>
      <trkpt lat="25.455467" lon="-80.423972">
        <ele>1.000006</ele>
        <time>2024-03-10T09:28:50.000Z</time>
      </trkpt>
      <trkpt lat="25.455485" lon="-80.423314">
        <ele>1.000006</ele>
        <time>2024-03-10T09:28:57.000Z</time>
      </trkpt>
      <trkpt lat="25.455485" lon="-80.422709">
        <ele>1.000006</ele>
        <time>2024-03-10T09:29:03.000Z</time>
      </trkpt>
      <trkpt lat="25.455483" lon="-80.421979">
        <ele>1.000006</ele>
        <time>2024-03-10T09:29:10.000Z</time>
      </trkpt>
      <trkpt lat="25.455494" lon="-80.421863">
        <ele>1.000006</ele>
        <time>2024-03-10T09:29:11.000Z</time>
      </trkpt>
      <trkpt lat="25.455494" lon="-80.421541">
        <ele>1.000006</ele>
        <time>2024-03-10T09:29:14.000Z</time>
      </trkpt>
      <trkpt lat="25.455446" lon="-80.421374">
        <ele>1.000006</ele>
        <time>2024-03-10T09:29:16.000Z</time>
      </trkpt>
      <trkpt lat="25.455448" lon="-80.420327">
        <ele>1.000006</ele>
        <time>2024-03-10T09:29:27.000Z</time>
      </trkpt>
      <trkpt lat="25.45551" lon="-80.420005">
        <ele>1.000006</ele>
        <time>2024-03-10T09:29:30.000Z</time>
      </trkpt>
      <trkpt lat="25.45552" lon="-80.416171">
        <ele>1.000006</ele>
        <time>2024-03-10T09:30:08.000Z</time>
      </trkpt>
      <trkpt lat="25.45552" lon="-80.416025">
        <ele>1.000006</ele>
        <time>2024-03-10T09:30:09.000Z</time>
      </trkpt>
      <trkpt lat="25.455503" lon="-80.415717">
        <ele>1.000006</ele>
        <time>2024-03-10T09:30:12.000Z</time>
      </trkpt>
      <trkpt lat="25.455518" lon="-80.414531">
        <ele>1.000006</ele>
        <time>2024-03-10T09:30:24.000Z</time>
      </trkpt>
      <trkpt lat="25.455519" lon="-80.414511">
        <ele>1.000006</ele>
        <time>2024-03-10T09:30:24.000Z</time>
      </trkpt>
      <trkpt lat="25.455507" lon="-80.414506">
        <ele>1.000006</ele>
        <time>2024-03-10T09:30:24.000Z</time>
      </trkpt>
      <trkpt lat="25.45552" lon="-80.413492">
        <ele>1.000006</ele>
        <time>2024-03-10T09:30:34.000Z</time>
      </trkpt>
      <trkpt lat="25.455527" lon="-80.412061">
        <ele>1.000006</ele>
        <time>2024-03-10T09:30:48.000Z</time>
      </trkpt>
      <trkpt lat="25.455531" lon="-80.412001">
        <ele>1.000006</ele>
        <time>2024-03-10T09:30:49.000Z</time>
      </trkpt>
      <trkpt lat="25.455191" lon="-80.412011">
        <ele>1.000006</ele>
        <time>2024-03-10T09:30:53.000Z</time>
      </trkpt>
      <trkpt lat="25.454791" lon="-80.412064">
        <ele>1.000006</ele>
        <time>2024-03-10T09:30:57.000Z</time>
      </trkpt>
      <trkpt lat="25.454396" lon="-80.412259">
        <ele>1.000006</ele>
        <time>2024-03-10T09:31:02.000Z</time>
      </trkpt>
      <trkpt lat="25.454169" lon="-80.412395">
        <ele>1.000006</ele>
        <time>2024-03-10T09:31:05.000Z</time>
      </trkpt>
      <trkpt lat="25.454004" lon="-80.412574">
        <ele>1.000006</ele>
        <time>2024-03-10T09:31:08.000Z</time>
      </trkpt>
      <trkpt lat="25.453901" lon="-80.412681">
        <ele>1.000006</ele>
        <time>2024-03-10T09:31:10.000Z</time>
      </trkpt>
      <trkpt lat="25.452817" lon="-80.414278">
        <ele>1.000006</ele>
        <time>2024-03-10T09:31:30.000Z</time>
      </trkpt>
      <trkpt lat="25.452624" lon="-80.414558">
        <ele>1.000006</ele>
        <time>2024-03-10T09:31:34.000Z</time>
      </trkpt>
      <trkpt lat="25.452241" lon="-80.414981">
        <ele>1.000006</ele>
        <time>2024-03-10T09:31:40.000Z</time>
      </trkpt>
      <trkpt lat="25.452032" lon="-80.415159">
        <ele>1.000006</ele>
        <time>2024-03-10T09:31:43.000Z</time>
      </trkpt>
      <trkpt lat="25.451791" lon="-80.415297">
        <ele>1.000006</ele>
        <time>2024-03-10T09:31:46.000Z</time>
      </trkpt>
      <trkpt lat="25.45159" lon="-80.415384">
        <ele>1.000006</ele>
        <time>2024-03-10T09:31:48.000Z</time>
      </trkpt>
      <trkpt lat="25.451297" lon="-80.415496">
        <ele>1.000006</ele>
        <time>2024-03-10T09:31:51.000Z</time>
      </trkpt>
      <trkpt lat="25.450979" lon="-80.415539">
        <ele>1.000006</ele>
        <time>2024-03-10T09:31:55.000Z</time>
      </trkpt>
      <trkpt lat="25.450549" lon="-80.415556">
        <ele>1.000006</ele>
        <time>2024-03-10T09:32:00.000Z</time>
      </trkpt>
      <trkpt lat="25.450467" lon="-80.415557">
        <ele>1.000006</ele>
        <time>2024-03-10T09:32:01.000Z</time>
      </trkpt>
      <trkpt lat="25.450473" lon="-80.415615">
        <ele>1.000006</ele>
        <time>2024-03-10T09:32:02.000Z</time>
      </trkpt>
      <trkpt lat="25.450469" lon="-80.415926">
        <ele>1.000006</ele>
        <time>2024-03-10T09:32:05.000Z</time>
      </trkpt>
      <trkpt lat="25.45052" lon="-80.416393">
        <ele>1.000006</ele>
        <time>2024-03-10T09:32:10.000Z</time>
      </trkpt>
      <trkpt lat="25.450618" lon="-80.416845">
        <ele>1.000006</ele>
        <time>2024-03-10T09:32:15.000Z</time>
      </trkpt>
      <trkpt lat="25.451164" lon="-80.418421">
        <ele>1.000006</ele>
        <time>2024-03-10T09:32:32.000Z</time>
      </trkpt>
      <trkpt lat="25.451244" lon="-80.418773">
        <ele>1.000006</ele>
        <time>2024-03-10T09:32:36.000Z</time>
      </trkpt>
      <trkpt lat="25.451341" lon="-80.419368">
        <ele>1.000006</ele>
        <time>2024-03-10T09:32:42.000Z</time>
      </trkpt>
      <trkpt lat="25.451364" lon="-80.419994">
        <ele>1.000006</ele>
        <time>2024-03-10T09:32:48.000Z</time>
      </trkpt>
      <trkpt lat="25.451363" lon="-80.422417">
        <ele>1.000006</ele>
        <time>2024-03-10T09:33:12.000Z</time>
      </trkpt>
      <trkpt lat="25.451436" lon="-80.42312">
        <ele>1.000006</ele>
        <time>2024-03-10T09:33:19.000Z</time>
      </trkpt>
      <trkpt lat="25.451501" lon="-80.423555">
        <ele>1.000006</ele>
        <time>2024-03-10T09:33:23.000Z</time>
      </trkpt>
      <trkpt lat="25.45164" lon="-80.424143">
        <ele>1.000006</ele>
        <time>2024-03-10T09:33:29.000Z</time>
      </trkpt>
      <trkpt lat="25.45181" lon="-80.424693">
        <ele>1.000006</ele>
        <time>2024-03-10T09:33:35.000Z</time>
      </trkpt>
      <trkpt lat="25.452156" lon="-80.425536">
        <ele>1.000006</ele>
        <time>2024-03-10T09:33:44.000Z</time>
      </trkpt>
      <trkpt lat="25.453314" lon="-80.428339">
        <ele>1.000006</ele>
        <time>2024-03-10T09:34:15.000Z</time>
      </trkpt>
      <trkpt lat="25.453474" lon="-80.428729">
        <ele>1.000006</ele>
        <time>2024-03-10T09:34:19.000Z</time>
      </trkpt>
      <trkpt lat="25.453658" lon="-80.429182">
        <ele>1.000006</ele>
        <time>2024-03-10T09:34:24.000Z</time>
      </trkpt>
      <trkpt lat="25.453895" lon="-80.430014">
        <ele>1.000006</ele>
        <time>2024-03-10T09:34:33.000Z</time>
      </trkpt>
      <trkpt lat="25.454017" lon="-80.430714">
        <ele>1.000006</ele>
        <time>2024-03-10T09:34:40.000Z</time>
      </trkpt>
      <trkpt lat="25.454091" lon="-80.431412">
        <ele>1.000006</ele>
        <time>2024-03-10T09:34:47.000Z</time>
      </trkpt>
      <trkpt lat="25.453941" lon="-80.431424">
        <ele>1.000006</ele>
        <time>2024-03-10T09:34:49.000Z</time>
      </trkpt>
      <trkpt lat="25.453928" lon="-80.431024">
        <ele>1.000006</ele>
        <time>2024-03-10T09:34:53.000Z</time>
      </trkpt>
      <trkpt lat="25.453859" lon="-80.430423">
        <ele>1.000006</ele>
        <time>2024-03-10T09:34:59.000Z</time>
      </trkpt>
      <trkpt lat="25.45368" lon="-80.429763">
        <ele>1.000006</ele>
        <time>2024-03-10T09:35:06.000Z</time>
      </trkpt>
      <trkpt lat="25.453337" lon="-80.428789">
        <ele>1.000006</ele>
        <time>2024-03-10T09:35:16.000Z</time>
      </trkpt>
      <trkpt lat="25.453157" lon="-80.428388">
        <ele>1.000006</ele>
        <time>2024-03-10T09:35:20.000Z</time>
      </trkpt>
      <trkpt lat="25.451997" lon="-80.425605">
        <ele>1.000006</ele>
        <time>2024-03-10T09:35:51.000Z</time>
      </trkpt>
      <trkpt lat="25.45166" lon="-80.424726">
        <ele>1.000006</ele>
        <time>2024-03-10T09:36:01.000Z</time>
      </trkpt>
      <trkpt lat="25.451481" lon="-80.424175">
        <ele>1.000006</ele>
        <time>2024-03-10T09:36:07.000Z</time>
      </trkpt>
      <trkpt lat="25.451347" lon="-80.423571">
        <ele>1.000006</ele>
        <time>2024-03-10T09:36:13.000Z</time>
      </trkpt>
      <trkpt lat="25.451253" lon="-80.42287">
        <ele>1.000006</ele>
        <time>2024-03-10T09:36:20.000Z</time>
      </trkpt>
      <trkpt lat="25.451228" lon="-80.422553">
        <ele>1.000006</ele>
        <time>2024-03-10T09:36:23.000Z</time>
      </trkpt>
      <trkpt lat="25.451247" lon="-80.420866">
        <ele>1.000006</ele>
        <time>2024-03-10T09:36:40.000Z</time>
      </trkpt>
      <trkpt lat="25.451245" lon="-80.420321">
        <ele>1.000006</ele>
        <time>2024-03-10T09:36:45.000Z</time>
      </trkpt>
      <trkpt lat="25.451249" lon="-80.420007">
        <ele>1.000006</ele>
        <time>2024-03-10T09:36:48.000Z</time>
      </trkpt>
      <trkpt lat="25.451197" lon="-80.419175">
        <ele>1.000006</ele>
        <time>2024-03-10T09:36:56.000Z</time>
      </trkpt>
      <trkpt lat="25.451146" lon="-80.418828">
        <ele>1.000006</ele>
        <time>2024-03-10T09:37:00.000Z</time>
      </trkpt>
      <trkpt lat="25.450472" lon="-80.416809">
        <ele>1.000006</ele>
        <time>2024-03-10T09:37:22.000Z</time>
      </trkpt>
      <trkpt lat="25.45041" lon="-80.416434">
        <ele>1.000006</ele>
        <time>2024-03-10T09:37:26.000Z</time>
      </trkpt>
      <trkpt lat="25.450351" lon="-80.415616">
        <ele>1.000006</ele>
        <time>2024-03-10T09:37:34.000Z</time>
      </trkpt>
      <trkpt lat="25.450342" lon="-80.41556">
        <ele>1.000006</ele>
        <time>2024-03-10T09:37:35.000Z</time>
      </trkpt>
      <trkpt lat="25.45027" lon="-80.41556">
        <ele>1.000006</ele>
        <time>2024-03-10T09:37:36.000Z</time>
      </trkpt>
      <trkpt lat="25.448717" lon="-80.415545">
        <ele>1.000006</ele>
        <time>2024-03-10T09:37:53.000Z</time>
      </trkpt>
      <trkpt lat="25.448576" lon="-80.415582">
        <ele>1.000006</ele>
        <time>2024-03-10T09:37:55.000Z</time>
      </trkpt>
      <trkpt lat="25.448376" lon="-80.415685">
        <ele>1.000006</ele>
        <time>2024-03-10T09:37:57.000Z</time>
      </trkpt>
      <trkpt lat="25.448224" lon="-80.415796">
        <ele>1.000006</ele>
        <time>2024-03-10T09:37:59.000Z</time>
      </trkpt>
      <trkpt lat="25.44813" lon="-80.415914">
        <ele>1.000006</ele>
        <time>2024-03-10T09:38:01.000Z</time>
      </trkpt>
      <trkpt lat="25.448125" lon="-80.415931">
        <ele>1.000006</ele>
        <time>2024-03-10T09:38:01.000Z</time>
      </trkpt>
      <trkpt lat="25.4481" lon="-80.415966">
        <ele>1.000006</ele>
        <time>2024-03-10T09:38:01.000Z</time>
      </trkpt>
      <trkpt lat="25.447997" lon="-80.41614">
        <ele>1.000006</ele>
        <time>2024-03-10T09:38:03.000Z</time>
      </trkpt>
      <trkpt lat="25.447883" lon="-80.416517">
        <ele>1.000006</ele>
        <time>2024-03-10T09:38:07.000Z</time>
      </trkpt>
      <trkpt lat="25.447863" lon="-80.419989">
        <ele>1.000006</ele>
        <time>2024-03-10T09:38:42.000Z</time>
      </trkpt>
      <trkpt lat="25.447853" lon="-80.425616">
        <ele>1.000006</ele>
        <time>2024-03-10T09:39:38.000Z</time>
      </trkpt>
      <trkpt lat="25.447849" lon="-80.428488">
        <ele>1.000006</ele>
        <time>2024-03-10T09:40:07.000Z</time>
      </trkpt>
      <trkpt lat="25.447832" lon="-80.430927">
        <ele>1.000006</ele>
        <time>2024-03-10T09:40:31.000Z</time>
      </trkpt>
      <trkpt lat="25.447888" lon="-80.431145">
        <ele>1.000006</ele>
        <time>2024-03-10T09:40:33.000Z</time>
      </trkpt>
      <trkpt lat="25.447998" lon="-80.431375">
        <ele>1.000006</ele>
        <time>2024-03-10T09:40:36.000Z</time>
      </trkpt>
      <trkpt lat="25.448098" lon="-80.431476">
        <ele>1.000006</ele>
        <time>2024-03-10T09:40:38.000Z</time>
      </trkpt>
      <trkpt lat="25.448536" lon="-80.431929">
        <ele>1.000006</ele>
        <time>2024-03-10T09:40:45.000Z</time>
      </trkpt>
      <trkpt lat="25.448674" lon="-80.432127">
        <ele>1.000006</ele>
        <time>2024-03-10T09:40:48.000Z</time>
      </trkpt>
      <trkpt lat="25.449023" lon="-80.43264">
        <ele>1.000006</ele>
        <time>2024-03-10T09:40:54.000Z</time>
      </trkpt>
      <trkpt lat="25.449217" lon="-80.433117">
        <ele>1.000006</ele>
        <time>2024-03-10T09:40:59.000Z</time>
      </trkpt>
      <trkpt lat="25.449278" lon="-80.433265">
        <ele>1.000006</ele>
        <time>2024-03-10T09:41:01.000Z</time>
      </trkpt>
      <trkpt lat="25.449592" lon="-80.434455">
        <ele>1.000006</ele>
        <time>2024-03-10T09:41:13.000Z</time>
      </trkpt>
      <trkpt lat="25.4496" lon="-80.434441">
        <ele>1.000006</ele>
        <time>2024-03-10T09:41:13.000Z</time>
      </trkpt>
      <trkpt lat="25.449522" lon="-80.434477">
        <ele>1.000006</ele>
        <time>2024-03-10T09:41:14.000Z</time>
      </trkpt>
      <trkpt lat="25.449538" lon="-80.434462">
        <ele>1.000006</ele>
        <time>2024-03-10T09:41:14.000Z</time>
      </trkpt>
      <trkpt lat="25.449459" lon="-80.434494">
        <ele>1.000006</ele>
        <time>2024-03-10T09:41:15.000Z</time>
      </trkpt>
      <trkpt lat="25.449093" lon="-80.433196">
        <ele>1.000006</ele>
        <time>2024-03-10T09:41:29.000Z</time>
      </trkpt>
      <trkpt lat="25.448869" lon="-80.432623">
        <ele>1.000006</ele>
        <time>2024-03-10T09:41:35.000Z</time>
      </trkpt>
      <trkpt lat="25.448705" lon="-80.432305">
        <ele>1.000006</ele>
        <time>2024-03-10T09:41:39.000Z</time>
      </trkpt>
      <trkpt lat="25.448086" lon="-80.431476">
        <ele>1.000006</ele>
        <time>2024-03-10T09:41:50.000Z</time>
      </trkpt>
      <trkpt lat="25.447999" lon="-80.431374">
        <ele>1.000006</ele>
        <time>2024-03-10T09:41:51.000Z</time>
      </trkpt>
      <trkpt lat="25.447893" lon="-80.43115">
        <ele>1.000006</ele>
        <time>2024-03-10T09:41:54.000Z</time>
      </trkpt>
      <trkpt lat="25.447834" lon="-80.430915">
        <ele>1.000006</ele>
        <time>2024-03-10T09:41:56.000Z</time>
      </trkpt>
      <trkpt lat="25.447833" lon="-80.428492">
        <ele>1.000006</ele>
        <time>2024-03-10T09:42:20.000Z</time>
      </trkpt>
      <trkpt lat="25.44785" lon="-80.425617">
        <ele>1.000006</ele>
        <time>2024-03-10T09:42:49.000Z</time>
      </trkpt>
      <trkpt lat="25.447863" lon="-80.419973">
        <ele>1.000006</ele>
        <time>2024-03-10T09:43:46.000Z</time>
      </trkpt>
      <trkpt lat="25.447896" lon="-80.416529">
        <ele>1.000006</ele>
        <time>2024-03-10T09:44:21.000Z</time>
      </trkpt>
      <trkpt lat="25.447864" lon="-80.416304">
        <ele>1.000006</ele>
        <time>2024-03-10T09:44:23.000Z</time>
      </trkpt>
      <trkpt lat="25.447843" lon="-80.41604">
        <ele>1.000006</ele>
        <time>2024-03-10T09:44:26.000Z</time>
      </trkpt>
      <trkpt lat="25.447867" lon="-80.415569">
        <ele>1.000006</ele>
        <time>2024-03-10T09:44:31.000Z</time>
      </trkpt>
      <trkpt lat="25.447932" lon="-80.411874">
        <ele>1.000006</ele>
        <time>2024-03-10T09:45:08.000Z</time>
      </trkpt>
      <trkpt lat="25.447917" lon="-80.409452">
        <ele>1.000006</ele>
        <time>2024-03-10T09:45:32.000Z</time>
      </trkpt>
      <trkpt lat="25.447899" lon="-80.407789">
        <ele>1.000006</ele>
        <time>2024-03-10T09:45:49.000Z</time>
      </trkpt>
      <trkpt lat="25.44794" lon="-80.40378">
        <ele>1.000006</ele>
        <time>2024-03-10T09:46:29.000Z</time>
      </trkpt>
      <trkpt lat="25.447961" lon="-80.39567">
        <ele>1.000006</ele>
        <time>2024-03-10T09:47:50.000Z</time>
      </trkpt>
      <trkpt lat="25.447982" lon="-80.391598">
        <ele>1.000006</ele>
        <time>2024-03-10T09:48:31.000Z</time>
      </trkpt>
      <trkpt lat="25.44799" lon="-80.387542">
        <ele>1.000006</ele>
        <time>2024-03-10T09:49:12.000Z</time>
      </trkpt>
      <trkpt lat="25.448004" lon="-80.383511">
        <ele>1.000006</ele>
        <time>2024-03-10T09:49:52.000Z</time>
      </trkpt>
      <trkpt lat="25.448005" lon="-80.37947">
        <ele>1.000006</ele>
        <time>2024-03-10T09:50:33.000Z</time>
      </trkpt>
      <trkpt lat="25.448001" lon="-80.383509">
        <ele>1.000006</ele>
        <time>2024-03-10T09:51:14.000Z</time>
      </trkpt>
      <trkpt lat="25.447994" lon="-80.387542">
        <ele>1.000006</ele>
        <time>2024-03-10T09:51:54.000Z</time>
      </trkpt>
      <trkpt lat="25.447971" lon="-80.391588">
        <ele>1.000006</ele>
        <time>2024-03-10T09:52:35.000Z</time>
      </trkpt>
      <trkpt lat="25.44796" lon="-80.395664">
        <ele>1.000006</ele>
        <time>2024-03-10T09:53:16.000Z</time>
      </trkpt>
      <trkpt lat="25.447951" lon="-80.403782">
        <ele>1.000006</ele>
        <time>2024-03-10T09:54:38.000Z</time>
      </trkpt>
      <trkpt lat="25.447902" lon="-80.407788">
        <ele>1.000006</ele>
        <time>2024-03-10T09:55:18.000Z</time>
      </trkpt>
      <trkpt lat="25.447918" lon="-80.409385">
        <ele>1.000006</ele>
        <time>2024-03-10T09:55:34.000Z</time>
      </trkpt>
      <trkpt lat="25.447909" lon="-80.409388">
        <ele>1.000006</ele>
        <time>2024-03-10T09:55:34.000Z</time>
      </trkpt>
      <trkpt lat="25.447908" lon="-80.409461">
        <ele>1.000006</ele>
        <time>2024-03-10T09:55:35.000Z</time>
      </trkpt>
      <trkpt lat="25.447996" lon="-80.409461">
        <ele>1.000006</ele>
        <time>2024-03-10T09:55:36.000Z</time>
      </trkpt>
      <trkpt lat="25.448183" lon="-80.409457">
        <ele>1.000006</ele>
        <time>2024-03-10T09:55:38.000Z</time>
      </trkpt>
      <trkpt lat="25.448341" lon="-80.409453">
        <ele>1.000006</ele>
        <time>2024-03-10T09:55:40.000Z</time>
      </trkpt>
      <trkpt lat="25.448423" lon="-80.409462">
        <ele>1.000006</ele>
        <time>2024-03-10T09:55:41.000Z</time>
      </trkpt>
      <trkpt lat="25.448655" lon="-80.409465">
        <ele>1.000006</ele>
        <time>2024-03-10T09:55:44.000Z</time>
      </trkpt>
      <trkpt lat="25.448864" lon="-80.409377">
        <ele>1.000006</ele>
        <time>2024-03-10T09:55:46.000Z</time>
      </trkpt>
      <trkpt lat="25.449304" lon="-80.408407">
        <ele>1.000006</ele>
        <time>2024-03-10T09:55:57.000Z</time>
      </trkpt>
      <trkpt lat="25.449751" lon="-80.407405">
        <ele>1.000006</ele>
        <time>2024-03-10T09:56:08.000Z</time>
      </trkpt>
      <trkpt lat="25.450202" lon="-80.406397">
        <ele>1.000006</ele>
        <time>2024-03-10T09:56:19.000Z</time>
      </trkpt>
      <trkpt lat="25.45029" lon="-80.406235">
        <ele>1.000006</ele>
        <time>2024-03-10T09:56:21.000Z</time>
      </trkpt>
      <trkpt lat="25.450407" lon="-80.40613">
        <ele>1.000006</ele>
        <time>2024-03-10T09:56:23.000Z</time>
      </trkpt>
      <trkpt lat="25.450423" lon="-80.406119">
        <ele>1.000006</ele>
        <time>2024-03-10T09:56:23.000Z</time>
      </trkpt>
      <trkpt lat="25.450535" lon="-80.406105">
        <ele>1.000006</ele>
        <time>2024-03-10T09:56:24.000Z</time>
      </trkpt>
      <trkpt lat="25.450812" lon="-80.406035">
        <ele>1.000006</ele>
        <time>2024-03-10T09:56:27.000Z</time>
      </trkpt>
      <trkpt lat="25.450929" lon="-80.405992">
        <ele>1.000006</ele>
        <time>2024-03-10T09:56:28.000Z</time>
      </trkpt>
      <trkpt lat="25.451581" lon="-80.405841">
        <ele>1.000006</ele>
        <time>2024-03-10T09:56:35.000Z</time>
      </trkpt>
      <trkpt lat="25.452106" lon="-80.405713">
        <ele>1.000006</ele>
        <time>2024-03-10T09:56:41.000Z</time>
      </trkpt>
      <trkpt lat="25.452495" lon="-80.405606">
        <ele>1.000006</ele>
        <time>2024-03-10T09:56:45.000Z</time>
      </trkpt>
      <trkpt lat="25.453011" lon="-80.405455">
        <ele>1.000006</ele>
        <time>2024-03-10T09:56:51.000Z</time>
      </trkpt>
      <trkpt lat="25.453216" lon="-80.405464">
        <ele>1.000006</ele>
        <time>2024-03-10T09:56:53.000Z</time>
      </trkpt>
      <trkpt lat="25.453396" lon="-80.405539">
        <ele>1.000006</ele>
        <time>2024-03-10T09:56:55.000Z</time>
      </trkpt>
      <trkpt lat="25.453576" lon="-80.405735">
        <ele>1.000006</ele>
        <time>2024-03-10T09:56:58.000Z</time>
      </trkpt>
      <trkpt lat="25.453667" lon="-80.405973">
        <ele>1.000006</ele>
        <time>2024-03-10T09:57:01.000Z</time>
      </trkpt>
      <trkpt lat="25.452335" lon="-80.408889">
        <ele>1.000006</ele>
        <time>2024-03-10T09:57:34.000Z</time>
      </trkpt>
    </trkseg>
  </trk>
</gpx>

<!--
Performance optimized by W3 Total Cache. Learn more: https://www.boldgrid.com/w3-total-cache/?utm_source=w3tc&utm_medium=footer_comment&utm_campaign=free_plugin

Page Caching using Disk: Enhanced{w3tc_pagecache_reject_reason} 

Served from: www.aquabike.world @ 2026-05-11 01:05:27 by W3 Total Cache
-->